Time;durP1;ratioP1;P1;durP2;ratioP2;P2;SDS_P1;SDS_P2;PMS_P1;PMS_P2;Temp;Humidity;BMP_temperature;BMP_pressure;BME280_temperature;BME280_humidity;BME280_pressure;Samples;Min_cycle;Max_cycle;Signal;HPM_P1;HPM_P2
2024/03/02 00:00:09;;;;;;;1.50;0.80;;;;;;;11.61;71.63;99824.53;5052069;28;20040;-46
2024/03/02 00:02:42;;;;;;;1.10;0.60;;;;;;;11.59;71.89;99823.69;5053290;28;20040;-46
2024/03/02 00:05:11;;;;;;;1.77;0.68;;;;;;;11.44;72.00;99823.81;5053431;28;20252;-45
2024/03/02 00:07:37;;;;;;;1.48;0.60;;;;;;;11.29;72.56;99835.19;5054190;28;20056;-45
2024/03/02 00:10:10;;;;;;;1.65;0.60;;;;;;;11.29;73.23;99829.09;5054027;28;20041;-47
2024/03/02 00:12:36;;;;;;;1.20;0.73;;;;;;;11.38;73.01;99836.91;5055676;28;20029;-46
2024/03/02 00:15:06;;;;;;;1.00;0.68;;;;;;;11.29;73.01;99829.97;5053198;28;20095;-45
2024/03/02 00:17:32;;;;;;;0.88;0.65;;;;;;;11.22;72.85;99840.47;5053433;28;20029;-47
2024/03/02 00:19:57;;;;;;;1.77;0.90;;;;;;;11.41;72.61;99849.91;5052146;28;20120;-44
2024/03/02 00:22:22;;;;;;;2.35;0.90;;;;;;;11.11;73.69;99857.91;5051164;28;20058;-45
2024/03/02 00:24:48;;;;;;;1.92;0.80;;;;;;;11.17;73.20;99857.88;5050234;28;20048;-46
2024/03/02 00:27:17;;;;;;;1.45;0.73;;;;;;;10.95;74.47;99863.22;5049927;28;20029;-46
2024/03/02 00:29:43;;;;;;;2.38;0.98;;;;;;;11.10;73.10;99856.19;5050138;28;20036;-44
2024/03/02 00:32:15;;;;;;;0.90;0.70;;;;;;;11.27;72.73;99855.22;5048894;28;20454;-44
2024/03/02 00:34:40;;;;;;;3.67;1.10;;;;;;;11.21;72.73;99859.63;5049986;28;20037;-46
2024/03/02 00:37:06;;;;;;;3.65;1.02;;;;;;;11.33;72.34;99856.94;5049443;28;20044;-47
2024/03/02 00:39:32;;;;;;;1.67;0.80;;;;;;;11.15;72.58;99846.59;5032369;28;20025;-47
2024/03/02 00:41:57;;;;;;;1.27;0.73;;;;;;;11.30;72.70;99856.94;5049698;28;20514;-46
2024/03/02 00:44:26;;;;;;;1.80;0.85;;;;;;;11.30;72.32;99852.59;5050366;28;20037;-45
2024/03/02 00:46:52;;;;;;;1.33;0.70;;;;;;;11.45;71.54;99851.63;5050169;28;20507;-47
2024/03/02 00:49:22;;;;;;;1.75;0.90;;;;;;;11.33;71.17;99849.97;5049673;28;20079;-47
2024/03/02 00:51:52;;;;;;;1.63;0.77;;;;;;;11.35;71.58;99848.19;5049322;28;20108;-47
2024/03/02 00:54:24;;;;;;;1.42;0.75;;;;;;;11.35;71.40;99855.16;5031551;28;20621;-44
2024/03/02 00:56:50;;;;;;;0.98;0.80;;;;;;;11.38;71.36;99866.47;5049883;28;20428;-44
2024/03/02 00:59:15;;;;;;;1.75;0.80;;;;;;;11.23;71.42;99858.72;5051832;28;20025;-44
2024/03/02 01:01:42;;;;;;;2.13;0.95;;;;;;;11.15;71.60;99855.31;5053920;28;20033;-46
2024/03/02 01:04:07;;;;;;;3.35;1.10;;;;;;;11.22;71.80;99848.31;5053764;28;20032;-49
2024/03/02 01:06:32;;;;;;;2.88;1.23;;;;;;;11.01;72.34;99851.00;5053891;28;20380;-46
2024/03/02 01:08:57;;;;;;;1.90;1.10;;;;;;;11.22;71.43;99843.94;5053002;28;20041;-47
2024/03/02 01:11:23;;;;;;;2.65;1.20;;;;;;;11.22;71.27;99849.16;5053078;28;20492;-47
2024/03/02 01:13:48;;;;;;;2.38;1.20;;;;;;;11.25;70.86;99854.38;5053493;28;20064;-47
2024/03/02 01:16:15;;;;;;;2.40;1.35;;;;;;;11.01;71.45;99851.00;5053396;28;20511;-48
2024/03/02 01:18:41;;;;;;;2.30;1.27;;;;;;;10.89;71.62;99846.72;5054924;28;20037;-47
2024/03/02 01:21:06;;;;;;;1.45;1.05;;;;;;;10.74;72.40;99842.41;5055082;28;20542;-45
2024/03/02 01:23:31;;;;;;;2.47;1.00;;;;;;;11.01;71.55;99854.50;5055064;28;20159;-45
2024/03/02 01:25:57;;;;;;;2.35;1.00;;;;;;;11.02;71.55;99861.44;5053617;28;20490;-46
2024/03/02 01:28:22;;;;;;;2.83;0.90;;;;;;;11.06;70.89;99864.91;5053636;28;20047;-45
2024/03/02 01:30:48;;;;;;;1.40;0.73;;;;;;;11.03;70.92;99862.31;5053699;28;20076;-46
2024/03/02 01:33:13;;;;;;;1.40;0.80;;;;;;;11.06;70.88;99878.81;5053299;28;20029;-46
2024/03/02 01:35:38;;;;;;;1.38;0.68;;;;;;;11.12;70.50;99886.59;5053219;28;20069;-46
2024/03/02 01:38:05;;;;;;;1.65;0.70;;;;;;;11.12;70.53;99888.34;5052652;28;20033;-46
2024/03/02 01:40:32;;;;;;;1.92;0.88;;;;;;;10.84;71.02;99883.25;5053130;28;20033;-49
2024/03/02 01:43:00;;;;;;;1.73;0.70;;;;;;;11.09;70.33;99870.97;5052655;28;20091;-46
2024/03/02 01:45:26;;;;;;;2.83;0.70;;;;;;;11.03;70.53;99868.41;5054035;28;20056;-46
2024/03/02 01:47:51;;;;;;;1.80;1.00;;;;;;;11.03;70.22;99873.63;5055105;28;20112;-46
2024/03/02 01:50:28;;;;;;;2.03;0.98;;;;;;;11.09;69.73;99876.19;5054271;28;20068;-47
2024/03/02 01:52:55;;;;;;;2.30;1.10;;;;;;;11.13;69.22;99871.81;5052610;28;20048;-46
2024/03/02 01:55:20;;;;;;;4.80;0.98;;;;;;;10.94;69.64;99878.84;5053866;28;20056;-46
2024/03/02 01:57:47;;;;;;;2.83;1.60;;;;;;;11.24;69.51;99885.66;5055428;28;20033;-46
2024/03/02 02:00:13;;;;;;;2.42;1.70;;;;;;;11.25;69.07;99896.09;5055253;28;20488;-46
2024/03/02 02:02:38;;;;;;;4.15;2.10;;;;;;;11.07;69.59;99890.97;5055917;28;20097;-45
2024/03/02 02:05:04;;;;;;;4.15;2.28;;;;;;;11.11;70.08;99894.44;5052893;28;20044;-43
2024/03/02 02:07:29;;;;;;;3.28;2.03;;;;;;;11.43;69.26;99889.91;5052897;28;20060;-48
2024/03/02 02:09:55;;;;;;;3.63;2.35;;;;;;;11.25;69.67;99888.28;5051862;28;20033;-47
2024/03/02 02:12:20;;;;;;;4.30;2.72;;;;;;;11.40;69.41;99890.78;5051934;28;20135;-48
2024/03/02 02:14:52;;;;;;;3.83;2.63;;;;;;;11.31;69.73;99887.38;5052537;28;20124;-47
2024/03/02 02:17:17;;;;;;;5.38;2.67;;;;;;;11.36;69.19;99891.69;5051986;28;20550;-47
2024/03/02 02:19:42;;;;;;;5.95;3.30;;;;;;;11.34;69.15;99887.38;5052168;28;20163;-48
2024/03/02 02:22:09;;;;;;;5.15;3.00;;;;;;;11.20;70.32;99900.50;5051868;28;20041;-45
2024/03/02 02:24:35;;;;;;;5.70;3.00;;;;;;;10.98;70.72;99896.22;5052506;28;20037;-45
2024/03/02 02:27:00;;;;;;;5.07;3.05;;;;;;;11.36;69.61;99898.66;5052282;28;20031;-47
2024/03/02 02:29:25;;;;;;;5.57;3.05;;;;;;;11.32;69.24;99902.16;5052333;28;20045;-45
2024/03/02 02:31:50;;;;;;;5.78;3.15;;;;;;;11.59;68.99;99903.72;5052087;28;20045;-48
2024/03/02 02:34:16;;;;;;;4.40;2.92;;;;;;;11.14;69.67;99900.50;5052003;28;20774;-49
2024/03/02 02:36:42;;;;;;;4.35;2.80;;;;;;;11.35;69.03;99895.19;5052570;28;20040;-46
2024/03/02 02:39:15;;;;;;;5.07;3.03;;;;;;;10.73;70.73;99894.59;5052541;28;20033;-46
2024/03/02 02:41:40;;;;;;;4.05;2.85;;;;;;;11.23;69.61;99895.25;5053254;28;20033;-46
2024/03/02 02:44:05;;;;;;;5.72;2.92;;;;;;;11.26;68.95;99891.75;5051593;28;20063;-48
2024/03/02 02:46:31;;;;;;;4.93;2.90;;;;;;;11.22;69.42;99896.09;5052400;28;20044;-45
2024/03/02 02:48:56;;;;;;;3.47;2.53;;;;;;;11.12;69.85;99896.16;5051768;28;20497;-45
2024/03/02 02:51:21;;;;;;;5.47;2.60;;;;;;;11.40;68.58;99887.34;5051310;28;20116;-45
2024/03/02 02:53:47;;;;;;;3.72;2.10;;;;;;;11.30;68.33;99888.25;5052113;28;20151;-45
2024/03/02 02:56:13;;;;;;;3.28;2.20;;;;;;;11.10;68.64;99896.16;5051534;28;20036;-46
2024/03/02 02:58:40;;;;;;;3.83;2.25;;;;;;;11.39;68.09;99889.09;5051813;28;20107;-44
2024/03/02 03:01:06;;;;;;;3.47;1.88;;;;;;;11.44;68.05;99898.63;5050806;28;20392;-44
2024/03/02 03:03:31;;;;;;;5.60;2.03;;;;;;;11.45;67.85;99897.75;5052220;28;20086;-44
2024/03/02 03:05:56;;;;;;;4.47;2.20;;;;;;;11.20;68.22;99895.28;5052543;28;20029;-45
2024/03/02 03:08:23;;;;;;;4.10;2.20;;;;;;;11.14;68.96;99894.44;5052861;28;20122;-47
2024/03/02 03:10:51;;;;;;;4.60;2.10;;;;;;;10.64;71.40;99895.47;5064046;22;20103;-82
2024/03/02 03:13:20;;;;;;;3.00;1.95;;;;;;;10.71;70.34;99896.31;5054560;28;20083;-79
2024/03/02 03:15:55;;;;;;;4.07;2.00;;;;;;;10.96;69.90;99903.19;5055264;28;20029;-80
2024/03/02 03:18:23;;;;;;;3.85;1.90;;;;;;;10.93;70.49;99901.47;5055042;28;20538;-81
2024/03/02 03:20:48;;;;;;;2.70;1.77;;;;;;;11.10;69.13;99905.75;5054102;28;20032;-81
2024/03/02 03:23:16;;;;;;;3.28;1.83;;;;;;;10.66;70.81;99900.69;5057227;28;20035;-79
2024/03/02 03:25:42;;;;;;;4.28;1.90;;;;;;;10.99;69.85;99897.94;5056309;28;20032;-81
2024/03/02 03:28:09;;;;;;;3.20;1.90;;;;;;;11.31;68.61;99901.28;5072291;28;20088;-79
2024/03/02 03:30:41;;;;;;;2.97;1.95;;;;;;;11.43;67.87;99905.59;5076351;28;20025;-81
2024/03/02 03:33:09;;;;;;;2.88;1.80;;;;;;;11.14;68.75;99897.91;5074617;28;20033;-80
2024/03/02 03:35:37;;;;;;;2.97;1.90;;;;;;;11.36;68.03;99909.09;5064148;28;20044;-80
2024/03/02 03:38:03;;;;;;;4.68;1.92;;;;;;;11.43;67.82;99905.59;5057038;28;20036;-80
2024/03/02 03:40:31;;;;;;;3.45;1.92;;;;;;;11.20;69.22;99910.06;5059060;28;20093;-79
2024/03/02 03:42:56;;;;;;;4.20;1.95;;;;;;;11.37;68.13;99916.06;5063668;28;20041;-80
2024/03/02 03:45:22;;;;;;;3.33;1.88;;;;;;;11.45;67.73;99916.88;5055710;28;20036;-81
2024/03/02 03:47:47;;;;;;;3.88;1.83;;;;;;;11.49;67.53;99912.50;5056153;28;20028;-81
2024/03/02 03:50:15;;;;;;;3.08;1.70;;;;;;;11.51;67.25;99906.41;5053718;28;20424;-80
2024/03/02 03:52:41;;;;;;;4.22;1.90;;;;;;;11.36;67.86;99917.78;5055652;28;20044;-81
2024/03/02 03:55:06;;;;;;;4.32;2.28;;;;;;;11.53;67.51;99914.22;5054971;28;20033;-79
2024/03/02 03:57:34;;;;;;;3.30;2.10;;;;;;;11.50;67.20;99916.84;5055459;28;20037;-81
2024/03/02 04:00:00;;;;;;;3.53;1.85;;;;;;;11.46;67.46;99926.47;5053192;28;20467;-80
2024/03/02 04:02:31;;;;;;;3.00;1.70;;;;;;;11.52;66.79;99920.34;5055586;28;20037;-81
2024/03/02 04:04:59;;;;;;;3.60;2.00;;;;;;;11.24;67.03;99922.19;5055032;28;20063;-81
2024/03/02 04:07:39;;;;;;;2.45;1.65;;;;;;;11.30;66.92;99916.94;5059397;28;20033;-80
2024/03/02 04:10:07;;;;;;;4.53;1.77;;;;;;;11.42;66.00;99919.50;5058478;28;20095;-80
2024/03/02 04:12:32;;;;;;;3.42;1.80;;;;;;;11.12;67.27;99922.25;5056733;28;20116;-80
2024/03/02 04:14:58;;;;;;;3.50;1.90;;;;;;;11.32;66.49;99917.81;5054627;28;20048;-82
2024/03/02 04:17:23;;;;;;;2.60;1.80;;;;;;;10.96;67.12;99922.31;5064157;28;20045;-80
2024/03/02 04:19:52;;;;;;;4.85;2.20;;;;;;;11.25;66.64;99919.59;5064879;28;20067;-81
2024/03/02 04:22:20;;;;;;;3.83;2.22;;;;;;;11.01;67.42;99927.50;5064630;28;20157;-81
2024/03/02 04:24:46;;;;;;;3.00;1.90;;;;;;;11.13;67.29;99934.44;5062134;28;20041;-80
2024/03/02 04:27:11;;;;;;;2.78;1.80;;;;;;;11.06;67.58;99928.38;5055982;28;20071;-81
2024/03/02 04:29:37;;;;;;;3.63;2.17;;;;;;;11.08;66.97;99930.97;5056247;28;20033;-82
2024/03/02 04:32:08;;;;;;;4.00;2.05;;;;;;;11.06;67.25;99927.50;5061825;28;20041;-81
2024/03/02 04:34:37;;;;;;;4.38;2.00;;;;;;;10.94;67.11;99925.78;5063421;28;20490;-81
2024/03/02 04:37:02;;;;;;;5.10;2.03;;;;;;;10.98;66.74;99931.00;5058163;28;20033;-81
2024/03/02 04:39:30;;;;;;;3.78;1.90;;;;;;;10.84;67.49;99924.97;5058274;28;20056;-82
2024/03/02 04:41:59;;;;;;;3.97;1.80;;;;;;;10.69;67.98;99935.41;5062493;28;20391;-81
2024/03/02 04:44:24;;;;;;;3.97;2.00;;;;;;;10.54;69.00;99940.69;5062672;28;20132;-81
2024/03/02 04:46:49;;;;;;;5.85;2.10;;;;;;;10.77;68.30;99938.03;5059803;28;20076;-81
2024/03/02 04:49:15;;;;;;;4.25;1.90;;;;;;;10.84;67.77;99938.00;5055552;28;20386;-82
2024/03/02 04:51:40;;;;;;;3.28;1.70;;;;;;;10.89;68.10;99951.91;5055430;28;20037;-81
2024/03/02 04:54:05;;;;;;;3.42;1.80;;;;;;;10.76;68.45;99958.00;5054634;28;20033;-80
2024/03/02 04:58:56;;;;;;;2.70;1.60;;;;;;;10.92;68.25;99961.44;5055111;28;20045;-79
2024/03/02 05:01:21;;;;;;;4.05;1.67;;;;;;;10.99;67.58;99958.81;5054834;28;20037;-82
2024/03/02 05:03:50;;;;;;;4.38;2.05;;;;;;;10.88;68.25;99950.16;5054046;28;20045;-80
2024/03/02 05:06:18;;;;;;;3.05;1.70;;;;;;;10.83;68.24;99951.91;5054896;28;20520;-80
2024/03/02 05:08:49;;;;;;;4.57;2.00;;;;;;;10.90;67.55;99956.25;5057099;28;20071;-80
2024/03/02 05:13:58;;;;;;;2.80;1.67;;;;;;;11.03;66.97;99959.69;5048596;28;20525;-82
2024/03/02 05:16:40;;;;;;;5.25;1.67;;;;;;;10.96;67.49;99960.56;5076517;28;20041;-80
2024/03/02 05:19:08;;;;;;;3.08;1.40;;;;;;;10.96;67.25;99965.78;5062972;28;20578;-80
2024/03/02 05:21:36;;;;;;;4.28;1.73;;;;;;;11.02;67.51;99965.78;5063352;28;20536;-82
2024/03/02 05:24:05;;;;;;;3.42;1.60;;;;;;;10.82;68.55;99967.56;5056779;28;20037;-81
2024/03/02 05:26:31;;;;;;;4.00;1.60;;;;;;;11.09;67.69;99964.00;5055182;28;20037;-80
2024/03/02 05:28:59;;;;;;;3.22;1.77;;;;;;;11.14;67.74;99972.69;5054844;28;20083;-80
2024/03/02 05:31:36;;;;;;;2.90;1.75;;;;;;;10.85;68.51;99980.59;5054141;28;20060;-79
2024/03/02 05:34:02;;;;;;;3.33;1.80;;;;;;;11.08;68.04;99978.78;5053480;28;20040;-79
2024/03/02 05:36:38;;;;;;;3.25;1.70;;;;;;;10.70;68.88;99983.22;5054730;28;20090;-80
2024/03/02 05:39:06;;;;;;;4.03;2.00;;;;;;;11.19;67.00;99983.97;5055037;28;20044;-81
2024/03/02 05:41:41;;;;;;;3.38;1.60;;;;;;;10.68;68.80;99978.00;5055131;28;20090;-79
2024/03/02 05:44:06;;;;;;;3.33;1.50;;;;;;;10.51;69.04;99977.16;5055094;28;20029;-81
2024/03/02 05:46:47;;;;;;;2.40;1.40;;;;;;;10.91;67.37;99976.25;5067487;28;20032;-80
2024/03/02 05:49:13;;;;;;;3.40;1.60;;;;;;;10.65;68.17;99977.16;5057837;28;20033;-81
2024/03/02 05:51:41;;;;;;;2.92;1.45;;;;;;;10.27;69.42;99988.44;5056610;28;20037;-81
2024/03/02 05:54:07;;;;;;;5.50;1.60;;;;;;;10.39;68.53;99984.97;5061207;28;20110;-81
2024/03/02 05:56:32;;;;;;;2.33;1.30;;;;;;;10.71;67.71;99982.34;5059200;28;20036;-82
2024/03/02 05:59:13;;;;;;;2.95;1.30;;;;;;;10.80;67.55;99971.88;5067137;28;20036;-81
2024/03/02 06:01:52;;;;;;;2.22;1.27;;;;;;;10.64;68.05;99980.63;5067708;28;20041;-80
2024/03/02 06:04:17;;;;;;;4.05;1.30;;;;;;;10.85;67.23;99983.19;5060966;28;20049;-80
2024/03/02 06:06:43;;;;;;;3.45;1.30;;;;;;;10.51;68.26;99980.63;5060335;28;20035;-82
2024/03/02 06:09:12;;;;;;;2.90;1.20;;;;;;;10.42;69.08;99991.06;5063871;28;20043;-80
2024/03/02 06:11:39;;;;;;;3.58;1.30;;;;;;;10.90;67.67;99991.88;5065237;28;20113;-79
2024/03/02 06:14:08;;;;;;;2.88;1.30;;;;;;;10.98;66.47;99984.88;5065839;28;20037;-81
2024/03/02 06:16:37;;;;;;;5.82;1.40;;;;;;;10.71;67.43;99991.03;5068212;28;20037;-82
2024/03/02 06:19:05;;;;;;;4.13;1.08;;;;;;;10.67;67.27;99988.44;5066946;28;20045;-80
2024/03/02 06:21:30;;;;;;;2.90;1.15;;;;;;;10.72;67.84;99989.31;5068827;28;20036;-79
2024/03/02 06:23:56;;;;;;;3.53;1.13;;;;;;;10.46;68.37;99987.59;5068094;28;20040;-80
2024/03/02 06:26:21;;;;;;;3.35;1.00;;;;;;;10.92;66.84;99992.72;5067098;28;20050;-80
2024/03/02 06:28:50;;;;;;;2.67;1.20;;;;;;;10.67;66.94;99993.66;5069464;28;20063;-81
2024/03/02 06:31:22;;;;;;;1.95;0.95;;;;;;;10.72;67.41;99992.78;5072617;28;20097;-79
2024/03/02 06:33:48;;;;;;;3.25;1.20;;;;;;;10.44;67.73;99997.13;5075293;28;20100;-80
2024/03/02 06:36:16;;;;;;;3.25;1.10;;;;;;;10.58;67.42;99998.00;5074005;28;20025;-80
2024/03/02 06:38:42;;;;;;;3.60;1.27;;;;;;;10.89;66.61;99997.97;5074496;28;20063;-79
2024/03/02 06:41:07;;;;;;;8.27;1.30;;;;;;;10.70;66.89;99996.25;5073218;28;20092;-80
2024/03/02 06:43:35;;;;;;;2.80;1.38;;;;;;;10.95;65.89;100006.66;5071017;28;20037;-79
2024/03/02 06:46:04;;;;;;;2.92;1.10;;;;;;;10.75;66.14;100008.41;5069184;28;20101;-79
2024/03/02 06:48:30;;;;;;;5.22;1.70;;;;;;;10.53;67.07;100001.47;5068851;28;20037;-79
2024/03/02 06:50:56;;;;;;;3.25;1.10;;;;;;;10.88;66.18;100004.03;5067617;28;20528;-78
2024/03/02 06:53:33;;;;;;;4.65;1.40;;;;;;;10.60;66.82;99999.75;5066497;28;20033;-81
2024/03/02 06:56:01;;;;;;;4.57;1.60;;;;;;;10.82;65.63;100007.53;5061375;28;20045;-81
2024/03/02 06:58:27;;;;;;;3.65;1.30;;;;;;;11.02;64.75;100010.09;5062087;28;20033;-82
2024/03/02 07:00:52;;;;;;;2.60;1.42;;;;;;;10.98;65.45;100009.22;5074771;28;20048;-81
2024/03/02 07:03:18;;;;;;;3.20;1.30;;;;;;;11.19;64.77;100015.28;5076035;28;20029;-80
2024/03/02 07:05:48;;;;;;;5.28;1.30;;;;;;;11.04;64.77;100021.38;5074934;28;20097;-80
2024/03/02 07:08:13;;;;;;;4.15;1.50;;;;;;;11.04;64.11;100021.38;5069204;28;20029;-82
2024/03/02 07:10:39;;;;;;;2.45;1.10;;;;;;;10.75;65.50;100031.00;5062686;28;20402;-82
2024/03/02 07:13:04;;;;;;;4.25;1.25;;;;;;;11.10;63.52;100036.19;5058558;28;20041;-82
2024/03/02 07:18:16;;;;;;;3.35;1.20;;;;;;;11.23;64.53;100033.53;5057573;28;20039;-80
2024/03/02 07:20:41;;;;;;;2.90;1.13;;;;;;;11.47;63.60;100037.78;5057603;28;20093;-81
2024/03/02 07:23:09;;;;;;;3.85;1.30;;;;;;;11.54;63.50;100039.50;5055911;28;20045;-82
2024/03/02 07:25:34;;;;;;;3.05;1.20;;;;;;;11.64;62.87;100032.53;5060558;28;20055;-81
2024/03/02 07:28:07;;;;;;;3.17;1.10;;;;;;;11.63;62.54;100047.31;5063372;28;20053;-79
2024/03/02 07:30:32;;;;;;;4.18;1.15;;;;;;;11.67;62.68;100040.31;5065863;28;20065;-79
2024/03/02 07:32:58;;;;;;;3.75;1.15;;;;;;;11.72;62.40;100042.03;5058348;28;20063;-81
2024/03/02 07:35:27;;;;;;;2.53;1.20;;;;;;;12.06;61.03;100048.00;5059338;28;20041;-80
2024/03/02 07:37:53;;;;;;;5.57;1.40;;;;;;;11.85;61.70;100042.00;5064121;28;20066;-80
2024/03/02 07:40:19;;;;;;;2.58;1.10;;;;;;;12.00;61.57;100049.78;5063818;28;20037;-81
2024/03/02 07:42:45;;;;;;;3.30;1.15;;;;;;;12.15;60.13;100050.53;5059537;28;20040;-81
2024/03/02 07:45:10;;;;;;;2.47;1.05;;;;;;;12.07;60.21;100060.19;5055884;28;20096;-80
2024/03/02 07:47:36;;;;;;;2.85;1.20;;;;;;;12.10;60.63;100060.16;5056872;28;20083;-80
2024/03/02 07:50:02;;;;;;;3.45;1.10;;;;;;;12.37;60.19;100056.53;5058055;28;20055;-80
2024/03/02 07:52:34;;;;;;;4.00;1.20;;;;;;;12.47;59.23;100057.31;5057515;28;20097;-80
2024/03/02 07:55:02;;;;;;;4.07;1.10;;;;;;;11.84;61.49;100054.19;5057488;28;20033;-81
2024/03/02 07:57:31;;;;;;;4.10;1.20;;;;;;;12.14;60.01;100067.09;5057857;28;20037;-80
2024/03/02 07:59:56;;;;;;;4.55;1.23;;;;;;;12.04;59.76;100065.41;5058200;28;20037;-79
2024/03/02 08:02:40;;;;;;;4.32;1.30;;;;;;;11.86;61.74;100055.06;5055861;28;20087;-80
2024/03/02 08:05:06;;;;;;;4.37;1.27;;;;;;;11.63;62.00;100049.06;5058720;28;20055;-81
2024/03/02 08:07:41;;;;;;;5.78;1.40;;;;;;;11.77;62.10;100055.97;5055885;28;20490;-80
2024/03/02 08:10:10;;;;;;;7.40;1.40;;;;;;;11.41;62.71;100063.91;5054751;28;20037;-81
2024/03/02 08:12:39;;;;;;;3.78;1.20;;;;;;;11.36;62.49;100048.28;5056237;28;20144;-81
2024/03/02 08:15:07;;;;;;;6.03;1.40;;;;;;;11.95;61.22;100052.44;5055257;28;20041;-81
2024/03/02 08:17:32;;;;;;;4.53;1.23;;;;;;;11.71;62.25;100055.97;5055608;28;20076;-80
2024/03/02 08:20:01;;;;;;;3.58;1.42;;;;;;;11.69;61.69;100055.13;5053929;28;20091;-82
2024/03/02 08:22:27;;;;;;;2.70;1.23;;;;;;;11.77;61.65;100057.75;5056167;28;20541;-79
2024/03/02 08:24:53;;;;;;;3.30;1.05;;;;;;;12.17;60.70;100061.00;5058088;28;20127;-80
2024/03/02 08:27:27;;;;;;;5.60;1.20;;;;;;;12.28;60.59;100064.41;5056333;28;20039;-80
2024/03/02 08:29:55;;;;;;;;;;;;;;;11.87;61.33;100055.94;5065241;28;20033;-79
2024/03/02 08:32:21;;;;;;;4.45;1.35;;;;;;;12.38;59.86;100060.84;5065114;28;19935;-79
2024/03/02 08:34:46;;;;;;;3.25;1.35;;;;;;;12.18;60.12;100053.16;5066145;28;20306;-81
2024/03/02 08:37:14;;;;;;;3.25;1.40;;;;;;;12.07;60.10;100048.88;5065140;28;20700;-80
2024/03/02 08:39:45;;;;;;;2.92;1.20;;;;;;;12.06;60.59;100057.59;5058709;28;20066;-78
2024/03/02 08:42:10;;;;;;;3.42;1.20;;;;;;;12.20;59.93;100055.75;5052475;28;20547;-79
2024/03/02 08:44:35;;;;;;;4.60;1.38;;;;;;;12.23;59.77;100060.97;5054275;28;20041;-80
2024/03/02 08:47:06;;;;;;;6.93;1.40;;;;;;;11.98;60.88;100062.84;5052317;28;20056;-79
2024/03/02 08:49:35;;;;;;;5.20;1.20;;;;;;;12.35;59.28;100063.50;5051635;28;20037;-79
2024/03/02 08:52:00;;;;;;;9.60;1.58;;;;;;;12.06;60.12;100066.28;5053840;28;20546;-80
2024/03/02 08:54:26;;;;;;;6.40;1.67;;;;;;;12.37;59.37;100071.34;5055003;28;20128;-80
2024/03/02 08:56:51;;;;;;;5.95;1.40;;;;;;;12.16;59.14;100060.13;5054312;28;20037;-80
2024/03/02 08:59:19;;;;;;;4.18;1.27;;;;;;;12.45;58.73;100075.59;5054982;28;20559;-81
2024/03/02 09:01:45;;;;;;;6.07;1.30;;;;;;;12.35;58.97;100063.50;5054835;28;20047;-80
2024/03/02 09:04:19;;;;;;;9.40;1.65;;;;;;;12.44;58.88;100073.88;5053147;28;20033;-80
2024/03/02 09:06:44;;;;;;;;;;;;;;;12.23;59.69;100073.16;5053112;28;20033;-80
2024/03/02 09:09:12;;;;;;;8.77;1.50;;;;;;;11.78;60.03;100078.59;5060219;28;19943;-80
2024/03/02 09:11:38;;;;;;;4.80;1.50;;;;;;;12.68;58.13;100072.84;5065532;28;20294;-81
2024/03/02 09:14:03;;;;;;;5.70;1.33;;;;;;;13.01;57.45;100067.31;5065168;28;20036;-80
2024/03/02 09:16:30;;;;;;;5.07;1.40;;;;;;;12.45;59.32;100070.38;5067418;28;20029;-80
2024/03/02 09:18:56;;;;;;;9.60;1.63;;;;;;;12.68;58.64;100080.69;5061080;28;20063;-79
2024/03/02 09:21:22;;;;;;;5.35;1.30;;;;;;;13.00;57.39;100080.41;5056471;28;20037;-80
2024/03/02 09:23:48;;;;;;;5.18;1.48;;;;;;;12.82;56.93;100083.19;5055809;28;20057;-79
2024/03/02 09:26:15;;;;;;;4.28;1.20;;;;;;;12.34;58.13;100077.44;5057537;28;20502;-80
2024/03/02 09:28:43;;;;;;;6.78;1.10;;;;;;;12.98;55.78;100082.19;5057645;28;20040;-78
2024/03/02 09:31:12;;;;;;;6.03;1.33;;;;;;;13.06;56.53;100089.94;5059447;28;20170;-79
2024/03/02 09:33:40;;;;;;;5.80;1.35;;;;;;;13.11;55.97;100075.09;5057027;28;20043;-80
2024/03/02 09:36:06;;;;;;;5.80;1.30;;;;;;;13.39;55.17;100089.66;5055559;28;20041;-80
2024/03/02 09:38:43;;;;;;;4.55;1.30;;;;;;;13.25;55.17;100083.69;5055121;28;20048;-80
2024/03/02 09:41:08;;;;;;;3.60;1.33;;;;;;;13.21;55.70;100087.22;5056977;28;20036;-80
2024/03/02 09:43:34;;;;;;;5.35;1.10;;;;;;;13.65;54.48;100087.63;5057745;28;20386;-82
2024/03/02 09:46:00;;;;;;;5.30;1.23;;;;;;;13.66;54.75;100086.72;5054242;28;20037;-80
2024/03/02 09:48:25;;;;;;;7.35;1.20;;;;;;;13.41;54.67;100085.28;5058598;28;20041;-79
2024/03/02 09:50:50;;;;;;;5.43;1.13;;;;;;;13.14;55.02;100091.66;5058331;28;20601;-80
2024/03/02 09:53:17;;;;;;;4.05;1.10;;;;;;;13.16;54.51;100091.66;5057916;28;20194;-82
2024/03/02 09:55:47;;;;;;;5.03;1.20;;;;;;;13.35;54.95;100088.84;5056751;28;20385;-80
2024/03/02 09:58:12;;;;;;;4.07;1.08;;;;;;;13.46;53.72;100093.06;5056358;28;20052;-81
2024/03/02 10:00:43;;;;;;;4.53;1.10;;;;;;;13.39;53.73;100097.50;5058041;28;20079;-79
2024/03/02 10:03:13;;;;;;;6.13;1.05;;;;;;;13.65;53.20;100095.47;5054294;28;20044;-81
2024/03/02 10:05:41;;;;;;;4.47;1.10;;;;;;;13.67;52.83;100104.16;5056844;28;20040;-80
2024/03/02 10:08:06;;;;;;;5.95;1.10;;;;;;;14.05;52.13;100101.09;5055046;28;20041;-81
2024/03/02 10:10:44;;;;;;;4.60;1.10;;;;;;;13.60;52.21;100101.66;5055481;28;20532;-80
2024/03/02 10:13:13;;;;;;;5.70;1.10;;;;;;;13.71;51.62;100094.53;5057517;28;20029;-79
2024/03/02 10:15:43;;;;;;;4.45;1.25;;;;;;;13.77;51.81;100100.56;5063423;28;20106;-80
2024/03/02 10:18:13;;;;;;;9.02;1.23;;;;;;;13.71;51.60;100097.16;5060724;28;20037;-81
2024/03/02 10:20:39;;;;;;;5.15;1.15;;;;;;;13.83;51.04;100099.63;5059019;28;20064;-81
2024/03/02 10:23:12;;;;;;;4.15;1.00;;;;;;;14.29;50.68;100089.41;5062437;28;20067;-81
2024/03/02 10:25:41;;;;;;;4.90;1.15;;;;;;;13.70;52.42;100077.97;5057636;28;20037;-81
2024/03/02 10:28:07;;;;;;;5.13;1.30;;;;;;;14.08;51.64;100066.13;5060241;28;20417;-80
2024/03/02 10:30:35;;;;;;;8.40;1.23;;;;;;;13.93;50.75;100069.81;5062906;28;20059;-80
2024/03/02 10:33:05;;;;;;;5.32;1.50;;;;;;;14.22;49.70;100070.25;5061743;28;20065;-81
2024/03/02 10:35:32;;;;;;;4.53;1.20;;;;;;;14.18;50.28;100068.59;5061320;28;20033;-81
2024/03/02 10:38:00;;;;;;;5.43;1.10;;;;;;;14.33;49.63;100071.88;5054686;28;20398;-80
2024/03/02 10:40:26;;;;;;;5.32;1.15;;;;;;;14.57;48.94;100067.16;5056869;28;20044;-80
2024/03/02 10:42:52;;;;;;;4.22;1.00;;;;;;;13.90;50.12;100069.84;5056048;28;20453;-82
2024/03/02 10:45:23;;;;;;;4.82;1.08;;;;;;;14.02;49.36;100067.06;5055537;28;20033;-79
2024/03/02 10:47:49;;;;;;;6.47;1.15;;;;;;;14.11;48.38;100071.31;5056235;28;20045;-81
2024/03/02 10:50:15;;;;;;;5.03;0.98;;;;;;;14.31;47.93;100057.91;5055784;28;20029;-79
2024/03/02 10:52:40;;;;;;;6.85;1.40;;;;;;;14.40;48.49;100061.28;5055024;28;20048;-80
2024/03/02 10:55:09;;;;;;;6.70;1.20;;;;;;;14.25;47.91;100055.38;5055490;28;20029;-80
2024/03/02 10:57:40;;;;;;;5.75;1.20;;;;;;;14.32;47.50;100055.28;5055853;28;20048;-80
2024/03/02 11:00:14;;;;;;;3.45;0.93;;;;;;;14.28;47.35;100057.94;5056102;28;20037;-79
2024/03/02 11:02:46;;;;;;;3.83;1.00;;;;;;;14.45;47.30;100053.38;5058257;28;20041;-80
2024/03/02 11:05:15;;;;;;;3.92;0.98;;;;;;;14.43;47.94;100063.00;5057348;28;20360;-78
2024/03/02 11:07:44;;;;;;;3.83;1.10;;;;;;;14.24;47.67;100054.53;5058981;28;20047;-80
2024/03/02 11:10:10;;;;;;;5.65;1.30;;;;;;;14.20;47.21;100053.72;5060187;28;20036;-79
2024/03/02 11:12:39;;;;;;;4.50;1.20;;;;;;;13.89;47.84;100060.25;5066856;28;20112;-78
2024/03/02 11:15:11;;;;;;;5.72;2.42;;;;;;;13.96;48.53;100056.69;5068634;28;20040;-80
2024/03/02 11:17:40;;;;;;;7.10;1.30;;;;;;;14.04;48.25;100053.94;5067067;28;20109;-79
2024/03/02 11:20:08;;;;;;;4.85;1.20;;;;;;;14.44;47.33;100057.75;5057578;28;20097;-81
2024/03/02 11:22:36;;;;;;;6.05;1.10;;;;;;;14.27;47.07;100054.50;5054785;28;20055;-80
2024/03/02 11:25:01;;;;;;;7.05;1.30;;;;;;;14.22;47.47;100057.16;5053172;28;20068;-79
2024/03/02 11:27:45;;;;;;;11.43;1.60;;;;;;;14.11;46.57;100060.81;5055922;28;20517;-80
2024/03/02 11:30:33;;;;;;;6.13;1.30;;;;;;;14.10;46.22;100059.09;5064277;28;20096;-82
2024/03/02 11:32:59;;;;;;;11.68;1.40;;;;;;;14.56;45.37;100051.44;5060722;28;20052;-80
2024/03/02 11:35:28;;;;;;;3.55;1.08;;;;;;;14.49;45.18;100041.94;5054879;28;20397;-80
2024/03/02 11:37:54;;;;;;;5.13;1.20;;;;;;;14.79;45.10;100043.19;5052377;28;20040;-81